Time;durP1;ratioP1;P1;durP2;ratioP2;P2;SDS_P1;SDS_P2;PMS_P1;PMS_P2;Temp;Humidity;BMP_temperature;BMP_pressure;BME280_temperature;BME280_humidity;BME280_pressure;Samples;Min_cycle;Max_cycle;Signal;HPM_P1;HPM_P2
2022/10/04 00:02:15;;;;;;;4.10;2.40;;;;;;;6.73;100.00;97323.30;110375;1246;68587;-77
2022/10/04 00:05:03;;;;;;;4.00;2.50;;;;;;;6.70;100.00;97319.33;110162;1246;59693;-75
2022/10/04 00:07:40;;;;;;;3.20;2.50;;;;;;;6.65;100.00;97320.98;110510;1246;59672;-77
2022/10/04 00:10:25;;;;;;;3.10;2.50;;;;;;;6.61;100.00;97319.81;110456;1246;71385;-75
2022/10/04 00:12:59;;;;;;;3.50;2.40;;;;;;;6.56;100.00;97322.86;110446;1244;69241;-75
2022/10/04 00:15:38;;;;;;;4.50;3.10;;;;;;;6.54;100.00;97323.53;110429;1244;69198;-76
2022/10/04 00:18:11;;;;;;;4.30;3.00;;;;;;;6.57;100.00;97325.23;110718;1244;59666;-75
2022/10/04 00:20:55;;;;;;;4.80;3.00;;;;;;;6.59;100.00;97324.96;110444;1244;59732;-75
2022/10/04 00:23:25;;;;;;;4.60;3.20;;;;;;;6.63;100.00;97324.21;110503;1245;71497;-75
2022/10/04 00:26:03;;;;;;;4.00;3.10;;;;;;;6.66;100.00;97323.90;110276;1247;69233;-73
2022/10/04 00:28:45;;;;;;;4.00;2.90;;;;;;;6.66;100.00;97327.02;110354;1245;68655;-75
2022/10/04 00:31:20;;;;;;;4.50;2.80;;;;;;;6.64;100.00;97320.52;110270;1246;59697;-76
2022/10/04 00:33:52;;;;;;;3.70;2.70;;;;;;;6.63;100.00;97324.89;110424;1245;60149;-76
2022/10/04 00:36:24;;;;;;;4.60;3.40;;;;;;;6.61;100.00;97327.77;110463;1247;70858;-76
2022/10/04 00:39:12;;;;;;;4.30;2.30;;;;;;;6.60;100.00;97324.55;110461;1245;68579;-76
2022/10/04 00:41:49;;;;;;;4.70;2.70;;;;;;;6.57;100.00;97325.77;110256;1247;69367;-76
2022/10/04 00:44:39;;;;;;;4.20;2.40;;;;;;;6.57;100.00;97325.43;110308;1245;60076;-75
2022/10/04 00:47:36;;;;;;;3.80;2.60;;;;;;;6.58;100.00;97320.88;110255;1247;59760;-76
2022/10/04 00:50:17;;;;;;;3.70;2.80;;;;;;;6.54;100.00;97318.48;110388;1245;71495;-76
2022/10/04 00:52:52;;;;;;;4.30;3.10;;;;;;;6.55;100.00;97318.09;110501;1245;69536;-76
2022/10/04 00:55:24;;;;;;;4.00;2.90;;;;;;;6.58;100.00;97317.41;110221;1247;68561;-76
2022/10/04 00:57:59;;;;;;;3.80;2.80;;;;;;;6.56;100.00;97317.86;110378;1245;59696;-74
2022/10/04 01:00:34;;;;;;;4.00;2.60;;;;;;;6.52;100.00;97315.66;110456;1245;59823;-75
2022/10/04 01:03:29;;;;;;;2.90;2.60;;;;;;;6.49;100.00;97317.92;110604;1246;70760;-77
2022/10/04 01:06:02;;;;;;;3.90;2.80;;;;;;;6.47;100.00;97322.02;110333;1247;68836;-76
2022/10/04 01:08:39;;;;;;;4.30;3.20;;;;;;;6.47;100.00;97319.42;110263;1246;68320;-78
2022/10/04 01:11:16;;;;;;;4.50;3.20;;;;;;;6.49;100.00;97318.80;110405;1247;59727;-76
2022/10/04 01:14:17;;;;;;;4.20;3.40;;;;;;;6.54;100.00;97324.89;110479;1246;59689;-76
2022/10/04 01:16:47;;;;;;;5.60;4.30;;;;;;;6.66;100.00;97324.73;110267;1247;71500;-77
2022/10/04 01:19:22;;;;;;;5.00;3.10;;;;;;;6.70;100.00;97323.45;110396;1246;68735;-78
2022/10/04 01:22:04;;;;;;;5.20;3.40;;;;;;;6.73;100.00;97321.58;110429;1246;68640;-76
2022/10/04 01:24:41;;;;;;;5.00;3.70;;;;;;;6.76;100.00;97320.70;110336;1246;59673;-77
2022/10/04 01:27:36;;;;;;;6.40;3.70;;;;;;;6.80;100.00;97321.50;110984;1246;59684;-78
2022/10/04 01:30:11;;;;;;;5.50;3.70;;;;;;;6.78;100.00;97317.40;110562;1246;71710;-77
2022/10/04 01:32:40;;;;;;;5.30;3.90;;;;;;;6.76;100.00;97323.61;110545;1247;69322;-76
2022/10/04 01:35:10;;;;;;;;;;;;;;;6.76;100.00;97324.35;110552;1246;69531;-76
2022/10/04 01:37:40;;;;;;;6.00;4.10;;;;;;;6.74;99.95;97322.20;110437;1247;59691;-78
2022/10/04 01:40:10;;;;;;;4.60;3.30;;;;;;;6.73;99.99;97329.18;110415;1246;59680;-76
2022/10/04 01:42:49;;;;;;;7.00;3.40;;;;;;;6.71;100.00;97331.55;110449;1245;69667;-76
2022/10/04 01:45:24;;;;;;;5.00;3.60;;;;;;;6.73;100.00;97331.11;110428;1246;69391;-76
2022/10/04 01:47:59;;;;;;;6.90;3.90;;;;;;;6.78;100.00;97334.92;110356;1246;68791;-77
2022/10/04 01:50:33;;;;;;;5.20;3.30;;;;;;;6.84;99.96;97333.88;110524;1245;59742;-78
2022/10/04 01:53:34;;;;;;;5.30;3.90;;;;;;;6.87;99.76;97337.15;110224;1246;59745;-77
2022/10/04 01:56:16;;;;;;;4.70;3.80;;;;;;;6.93;99.27;97333.50;110407;1245;71612;-76
2022/10/04 01:59:02;;;;;;;4.80;3.70;;;;;;;6.95;99.31;97333.96;110472;1244;69387;-76
2022/10/04 02:01:51;;;;;;;5.10;4.10;;;;;;;6.96;99.24;97335.29;110289;1246;69545;-75
2022/10/04 02:04:27;;;;;;;5.50;3.90;;;;;;;6.98;99.20;97339.13;110286;1246;59757;-77
2022/10/04 02:06:58;;;;;;;5.30;3.50;;;;;;;6.98;99.27;97340.33;110373;1245;59694;-76
2022/10/04 02:09:32;;;;;;;4.60;3.40;;;;;;;6.97;99.65;97342.27;110461;1246;71262;-75
2022/10/04 02:12:02;;;;;;;5.30;3.30;;;;;;;6.98;99.92;97345.73;110216;1246;69346;-75
2022/10/04 02:14:42;;;;;;;5.40;4.10;;;;;;;6.99;99.69;97344.63;110221;1246;69288;-76
2022/10/04 02:17:11;;;;;;;4.80;3.80;;;;;;;7.02;99.63;97347.91;110322;1247;59680;-76
2022/10/04 02:19:41;;;;;;;5.40;4.10;;;;;;;7.03;99.17;97346.25;110292;1246;59699;-76
2022/10/04 02:22:10;;;;;;;5.10;3.40;;;;;;;7.07;98.74;97348.09;110401;1246;71464;-76
2022/10/04 02:24:43;;;;;;;5.70;4.00;;;;;;;7.10;98.50;97350.53;110434;1245;69276;-77
2022/10/04 02:27:12;;;;;;;5.40;4.30;;;;;;;7.13;97.91;97348.97;110322;1247;69398;-75
2022/10/04 02:29:42;;;;;;;5.30;4.10;;;;;;;7.17;97.74;97348.23;110314;1246;59721;-75
2022/10/04 02:35:03;;;;;;;7.00;4.60;;;;;;;7.19;98.00;97351.75;111028;1245;70911;-73
2022/10/04 02:37:31;;;;;;;6.60;4.90;;;;;;;7.18;98.31;97353.38;110423;1246;69287;-75
2022/10/04 02:40:13;;;;;;;6.80;4.80;;;;;;;7.20;97.96;97348.89;110364;1246;69332;-75
2022/10/04 02:42:48;;;;;;;5.40;4.30;;;;;;;7.23;97.90;97350.64;110374;1246;59701;-76
2022/10/04 02:45:36;;;;;;;5.90;4.30;;;;;;;7.19;98.09;97351.93;110198;1246;59745;-77
2022/10/04 02:48:20;;;;;;;6.50;4.30;;;;;;;7.16;98.57;97352.77;110294;1245;70586;-76
2022/10/04 02:50:53;;;;;;;6.50;4.90;;;;;;;7.14;98.81;97352.19;110391;1245;69239;-75
2022/10/04 02:53:29;;;;;;;5.40;4.50;;;;;;;7.15;98.61;97354.18;110488;1246;68745;-75
2022/10/04 02:55:57;;;;;;;5.80;4.50;;;;;;;7.12;99.27;97357.52;110407;1246;59686;-76
2022/10/04 02:58:26;;;;;;;6.50;4.50;;;;;;;7.11;98.80;97359.81;110542;1246;59688;-75
2022/10/04 03:00:59;;;;;;;5.80;4.00;;;;;;;7.10;98.80;97366.30;110422;1246;71513;-74
2022/10/04 03:03:29;;;;;;;5.50;4.40;;;;;;;7.09;98.92;97363.43;110414;1247;69313;-75
2022/10/04 03:06:08;;;;;;;5.10;3.70;;;;;;;7.06;98.89;97364.78;110352;1246;69244;-75
2022/10/04 03:08:55;;;;;;;4.40;3.30;;;;;;;7.03;99.11;97367.56;110244;1247;59759;-75
2022/10/04 03:11:30;;;;;;;5.10;3.30;;;;;;;7.02;99.17;97373.02;110373;1245;59681;-76
2022/10/04 03:14:01;;;;;;;6.00;4.10;;;;;;;7.02;99.21;97371.80;110298;1246;71440;-75
2022/10/04 03:16:36;;;;;;;7.00;3.90;;;;;;;7.00;99.60;97377.13;110382;1246;69298;-76
2022/10/04 03:19:08;;;;;;;6.10;4.70;;;;;;;6.98;99.98;97376.56;110362;1245;68625;-75
2022/10/04 03:21:39;;;;;;;7.10;4.60;;;;;;;6.98;99.61;97378.99;110388;1246;59701;-75
2022/10/04 03:24:14;;;;;;;5.90;4.80;;;;;;;6.98;98.82;97378.66;110322;1246;59707;-75
2022/10/04 03:26:47;;;;;;;6.00;4.90;;;;;;;6.96;98.64;97379.64;110412;1244;70956;-76
2022/10/04 03:29:17;;;;;;;6.20;4.80;;;;;;;6.87;99.15;97380.67;110507;1245;69451;-76
2022/10/04 03:31:52;;;;;;;6.30;4.10;;;;;;;6.84;98.94;97381.88;110425;1246;68583;-76
2022/10/04 03:34:26;;;;;;;5.50;4.00;;;;;;;6.76;99.25;97383.02;110461;1246;59697;-75
2022/10/04 03:36:57;;;;;;;6.20;3.90;;;;;;;6.69;99.88;97384.86;110467;1245;59684;-74
2022/10/04 03:39:33;;;;;;;5.90;4.50;;;;;;;6.63;99.64;97386.38;110349;1246;70494;-76
2022/10/04 03:42:28;;;;;;;4.90;3.50;;;;;;;6.56;99.76;97389.52;111005;1247;68514;-75
2022/10/04 03:45:00;;;;;;;6.90;4.40;;;;;;;6.48;100.00;97389.48;110519;1246;68648;-76
2022/10/04 03:47:37;;;;;;;5.70;4.00;;;;;;;6.40;100.00;97388.02;110596;1247;59721;-76
2022/10/04 03:50:33;;;;;;;5.40;4.30;;;;;;;6.37;100.00;97391.96;110339;1245;59752;-76
2022/10/04 03:53:25;;;;;;;6.20;5.00;;;;;;;6.36;100.00;97392.39;110397;1246;71511;-75
2022/10/04 03:55:53;;;;;;;7.80;5.70;;;;;;;6.36;99.86;97400.88;110383;1246;68499;-76
2022/10/04 03:58:24;;;;;;;8.70;5.70;;;;;;;6.37;99.87;97408.95;110369;1245;69480;-75
2022/10/04 04:01:09;;;;;;;8.40;6.10;;;;;;;6.34;99.74;97411.03;110225;1245;59670;-75
2022/10/04 04:03:52;;;;;;;7.30;5.60;;;;;;;6.31;100.00;97413.13;110207;1247;59799;-76
2022/10/04 04:06:22;;;;;;;8.10;6.00;;;;;;;6.29;99.99;97416.02;110410;1246;71736;-76
2022/10/04 04:08:54;;;;;;;7.70;5.30;;;;;;;6.27;99.95;97418.02;110233;1246;68897;-74
2022/10/04 04:11:25;;;;;;;9.20;6.10;;;;;;;6.27;99.98;97419.95;110369;1246;68676;-74
2022/10/04 04:14:20;;;;;;;6.30;4.90;;;;;;;6.22;100.00;97426.45;110418;1245;59739;-75
2022/10/04 04:16:48;;;;;;;8.00;5.80;;;;;;;6.16;99.96;97429.34;110354;1245;59641;-75
2022/10/04 04:19:22;;;;;;;7.40;5.40;;;;;;;6.13;99.97;97433.51;110500;1247;71583;-75
2022/10/04 04:21:53;;;;;;;6.00;4.80;;;;;;;6.07;99.98;97433.98;110353;1245;69321;-76
2022/10/04 04:24:27;;;;;;;5.90;4.80;;;;;;;6.00;100.00;97433.66;110268;1246;69423;-75
2022/10/04 04:27:01;;;;;;;6.70;4.30;;;;;;;5.93;100.00;97434.40;110097;1247;59709;-77
2022/10/04 04:29:41;;;;;;;7.90;5.30;;;;;;;5.89;100.00;97432.67;110555;1245;59694;-75
2022/10/04 04:32:40;;;;;;;7.00;5.30;;;;;;;5.85;100.00;97434.23;110239;1246;71516;-75
2022/10/04 04:35:29;;;;;;;7.20;4.90;;;;;;;5.82;100.00;97439.08;110196;1246;68807;-75
2022/10/04 04:38:19;;;;;;;7.90;4.90;;;;;;;5.78;100.00;97444.34;110341;1245;69272;-74
2022/10/04 04:40:47;;;;;;;;;;;;;;;5.75;100.00;97445.71;110532;1245;59707;-77
2022/10/04 04:43:19;;;;;;;9.60;6.20;;;;;;;5.73;100.00;97446.66;110406;1247;59685;-75
2022/10/04 04:45:49;;;;;;;8.00;5.50;;;;;;;5.75;100.00;97445.52;110704;1246;70739;-75
2022/10/04 04:48:36;;;;;;;7.60;6.40;;;;;;;5.78;100.00;97445.91;110791;1245;69338;-75
2022/10/04 04:51:04;;;;;;;8.80;5.40;;;;;;;5.79;100.00;97448.80;110319;1245;69381;-75
2022/10/04 04:53:31;;;;;;;6.90;5.10;;;;;;;5.81;100.00;97451.64;110420;1245;59745;-76
2022/10/04 04:56:02;;;;;;;7.10;5.20;;;;;;;5.84;100.00;97453.52;110292;1246;59646;-74
2022/10/04 04:58:45;;;;;;;7.10;4.80;;;;;;;5.87;100.00;97455.76;110466;1245;72082;-76
2022/10/04 05:01:34;;;;;;;12.20;7.30;;;;;;;5.92;100.00;97457.63;110486;1245;69249;-76
2022/10/04 05:04:05;;;;;;;7.10;5.40;;;;;;;5.97;100.00;97458.08;110447;1245;68580;-76
2022/10/04 05:06:36;;;;;;;10.80;6.30;;;;;;;6.02;100.00;97457.95;110379;1247;59648;-73
2022/10/04 05:09:04;;;;;;;9.30;5.70;;;;;;;6.09;100.00;97463.63;110448;1245;59673;-75
2022/10/04 05:11:36;;;;;;;8.90;5.80;;;;;;;6.15;100.00;97469.23;110401;1245;71505;-76
2022/10/04 05:14:11;;;;;;;7.20;5.40;;;;;;;6.21;100.00;97467.32;110269;1246;69341;-75
2022/10/04 05:16:46;;;;;;;7.60;5.60;;;;;;;6.28;100.00;97467.11;110211;1245;69838;-74
2022/10/04 05:19:27;;;;;;;7.10;5.40;;;;;;;6.36;100.00;97471.14;110236;1246;59770;-74
2022/10/04 05:21:57;;;;;;;7.70;5.40;;;;;;;6.40;100.00;97470.41;110230;1246;59737;-75
2022/10/04 05:24:40;;;;;;;8.20;5.70;;;;;;;6.44;100.00;97475.77;110337;1246;72161;-75
2022/10/04 05:27:22;;;;;;;8.10;5.70;;;;;;;6.51;100.00;97480.75;110216;1245;69637;-75
2022/10/04 05:30:18;;;;;;;7.30;5.60;;;;;;;6.54;100.00;97487.68;110533;1245;68440;-76
2022/10/04 05:33:04;;;;;;;8.00;6.50;;;;;;;6.62;100.00;97486.85;110299;1245;59683;-75
2022/10/04 05:35:49;;;;;;;9.50;7.20;;;;;;;6.71;100.00;97499.86;110436;1246;59633;-75
2022/10/04 05:38:47;;;;;;;8.80;6.80;;;;;;;6.80;99.98;97507.88;110019;1245;575346;-76
2022/10/04 05:41:31;;;;;;;9.80;7.30;;;;;;;6.89;99.84;97504.58;110365;1243;69584;-76
2022/10/04 05:44:35;;;;;;;8.80;6.40;;;;;;;7.00;99.48;97504.68;110362;1244;69628;-76
2022/10/04 05:47:07;;;;;;;7.60;6.10;;;;;;;7.10;99.04;97506.35;110153;1245;59680;-75
2022/10/04 05:49:42;;;;;;;9.30;6.80;;;;;;;7.18;98.44;97504.17;110283;1244;59752;-75
2022/10/04 05:52:35;;;;;;;10.30;6.80;;;;;;;7.34;98.09;97505.34;110572;1244;70700;-75
2022/10/04 05:55:11;;;;;;;9.20;7.00;;;;;;;7.54;97.34;97507.92;110415;1244;69498;-75
2022/10/04 05:57:53;;;;;;;9.10;6.00;;;;;;;7.83;97.77;97515.26;110294;1245;68824;-75
2022/10/04 06:00:47;;;;;;;13.60;8.20;;;;;;;8.16;97.69;97515.68;110310;1247;59745;-75
2022/10/04 06:03:28;;;;;;;12.20;8.30;;;;;;;8.50;97.70;97508.36;110436;1246;59703;-75
2022/10/04 06:06:19;;;;;;;8.20;6.50;;;;;;;8.81;96.98;97512.52;110581;1245;71442;-75
2022/10/04 06:08:50;;;;;;;8.40;6.70;;;;;;;9.11;95.38;97520.43;110032;1247;68564;-75
2022/10/04 06:11:23;;;;;;;9.10;6.20;;;;;;;9.35;89.51;97528.83;110246;1245;69406;-76
2022/10/04 06:14:26;;;;;;;9.00;6.70;;;;;;;9.51;87.55;97529.28;110411;1245;59749;-74
2022/10/04 06:17:30;;;;;;;8.00;6.30;;;;;;;9.81;87.50;97536.67;110533;1246;59696;-77
2022/10/04 06:20:02;;;;;;;6.70;4.60;;;;;;;9.99;84.76;97544.72;110450;1246;71489;-76
2022/10/04 06:22:31;;;;;;;6.60;5.30;;;;;;;10.36;84.42;97547.55;110282;1245;69314;-75
2022/10/04 06:25:08;;;;;;;6.10;4.40;;;;;;;10.54;81.41;97549.44;110296;1246;68609;-75
2022/10/04 06:27:41;;;;;;;5.30;4.50;;;;;;;10.75;80.47;97548.42;110343;1245;59738;-76
2022/10/04 06:30:14;;;;;;;7.00;4.70;;;;;;;10.88;79.12;97550.52;110504;1246;59699;-76
2022/10/04 06:32:50;;;;;;;5.60;4.90;;;;;;;11.04;77.86;97557.38;110589;1245;71686;-75
2022/10/04 06:35:43;;;;;;;5.70;3.50;;;;;;;11.14;78.34;97561.33;110318;1246;69390;-77
2022/10/04 06:38:33;;;;;;;5.60;3.60;;;;;;;11.61;76.56;97565.59;110413;1246;69432;-75
2022/10/04 06:41:08;;;;;;;5.00;3.90;;;;;;;11.78;74.22;97567.80;110396;1245;59683;-75
2022/10/04 06:43:39;;;;;;;5.90;4.30;;;;;;;11.90;74.61;97570.04;110211;1247;59808;-74
2022/10/04 06:46:24;;;;;;;4.70;4.10;;;;;;;12.23;72.82;97571.16;110473;1245;70036;-76
2022/10/04 06:48:53;;;;;;;6.50;4.50;;;;;;;12.16;71.69;97577.83;110529;1247;69482;-77
2022/10/04 06:51:32;;;;;;;4.30;3.80;;;;;;;12.41;72.77;97577.70;110428;1246;69672;-75
2022/10/04 06:54:36;;;;;;;5.70;3.60;;;;;;;12.43;71.34;97578.06;110281;1245;59711;-75
2022/10/04 06:57:32;;;;;;;3.90;3.50;;;;;;;12.67;70.16;97579.63;110988;1245;58860;-74
2022/10/04 07:00:13;;;;;;;5.20;3.90;;;;;;;12.74;69.60;97581.70;110390;1245;71445;-75
2022/10/04 07:02:59;;;;;;;4.30;3.30;;;;;;;12.28;68.81;97583.37;110475;1246;68416;-76
2022/10/04 07:05:51;;;;;;;4.30;3.50;;;;;;;12.04;67.12;97580.86;110186;1247;70015;-74
2022/10/04 07:08:31;;;;;;;4.70;3.90;;;;;;;12.28;66.74;97584.45;110317;1246;59735;-76
2022/10/04 07:11:17;;;;;;;5.50;3.30;;;;;;;12.73;67.73;97584.98;110216;1246;59679;-74
2022/10/04 07:13:50;;;;;;;4.70;3.60;;;;;;;13.12;65.58;97593.05;110219;1245;71474;-74
2022/10/04 07:16:25;;;;;;;3.00;2.50;;;;;;;13.22;66.95;97596.81;110276;1246;68652;-76
2022/10/04 07:19:18;;;;;;;3.20;2.40;;;;;;;13.40;65.42;97596.84;110337;1246;69436;-71
2022/10/04 07:22:14;;;;;;;3.60;3.10;;;;;;;13.11;65.05;97598.39;110217;1247;59790;-73
2022/10/04 07:24:44;;;;;;;4.90;3.30;;;;;;;12.87;66.01;97596.14;110251;1247;59764;-73
2022/10/04 07:27:30;;;;;;;3.90;3.10;;;;;;;13.13;65.91;97604.52;110316;1246;70882;-76
2022/10/04 07:30:03;;;;;;;5.90;4.50;;;;;;;13.77;63.50;97601.83;110428;1244;67847;-73
2022/10/04 07:32:37;;;;;;;4.70;3.10;;;;;;;14.29;63.44;97602.36;110217;1246;68636;-74
2022/10/04 07:35:12;;;;;;;5.30;3.40;;;;;;;14.86;60.90;97602.41;110217;1246;59686;-73
2022/10/04 07:38:03;;;;;;;3.70;3.40;;;;;;;14.69;58.05;97605.77;110420;1244;59751;-75
2022/10/04 07:40:37;;;;;;;3.30;2.70;;;;;;;15.16;58.40;97607.48;110226;1247;72040;-75
2022/10/04 07:43:21;;;;;;;3.20;2.90;;;;;;;15.13;58.84;97612.14;110434;1246;69318;-75
2022/10/04 07:45:50;;;;;;;3.80;2.50;;;;;;;15.29;58.29;97616.11;110238;1246;68005;-74
2022/10/04 07:48:24;;;;;;;3.90;3.00;;;;;;;15.48;57.53;97620.08;110375;1247;59967;-73
2022/10/04 07:51:17;;;;;;;4.80;3.10;;;;;;;15.55;57.92;97621.24;110347;1245;59625;-74
2022/10/04 07:54:09;;;;;;;3.40;2.70;;;;;;;15.73;57.83;97624.22;110212;1245;71744;-74
2022/10/04 07:56:46;;;;;;;3.10;2.60;;;;;;;15.17;56.35;97628.77;110415;1245;68556;-73
2022/10/04 07:59:51;;;;;;;3.50;2.90;;;;;;;14.81;57.85;97632.46;110450;1246;68863;-73
2022/10/04 08:02:57;;;;;;;3.90;3.20;;;;;;;14.60;58.40;97631.33;110008;1253;59666;-75
2022/10/04 08:05:40;;;;;;;3.50;2.60;;;;;;;14.05;59.86;97633.80;111140;1246;59596;-75
2022/10/04 08:08:16;;;;;;;2.40;2.10;;;;;;;13.90;60.82;97634.50;110399;1246;71407;-73
2022/10/04 08:10:55;;;;;;;4.60;2.60;;;;;;;13.73;61.67;97636.94;110479;1246;68721;-73
2022/10/04 08:13:41;;;;;;;3.40;2.60;;;;;;;13.50;62.88;97644.42;110409;1247;69320;-75
2022/10/04 08:16:48;;;;;;;3.40;2.60;;;;;;;13.28;63.15;97646.73;110344;1246;59694;-75
2022/10/04 08:19:24;;;;;;;3.70;2.80;;;;;;;13.07;63.85;97647.73;110167;1247;59679;-73
2022/10/04 08:22:10;;;;;;;4.40;2.70;;;;;;;12.88;64.33;97646.56;110239;1245;71065;-73
2022/10/04 08:24:47;;;;;;;2.70;2.20;;;;;;;12.80;64.95;97650.16;110246;1246;69256;-72
2022/10/04 08:31:25;;;;;;;3.90;3.50;;;;;;;12.60;64.86;97647.67;110080;1247;59821;-74
2022/10/04 08:33:53;;;;;;;4.90;3.80;;;;;;;12.26;65.26;97646.84;110283;1246;59682;-73
2022/10/04 08:36:26;;;;;;;3.70;2.70;;;;;;;12.19;65.70;97651.02;110327;1245;70945;-73
2022/10/04 08:38:57;;;;;;;3.60;3.10;;;;;;;11.91;66.56;97649.83;110445;1245;69203;-74
2022/10/04 08:41:46;;;;;;;4.30;3.40;;;;;;;11.48;67.53;97656.90;110486;1246;69226;-75
2022/10/04 08:44:44;;;;;;;4.50;3.70;;;;;;;11.52;67.52;97658.25;110396;1245;59750;-75
2022/10/04 08:47:30;;;;;;;4.60;2.90;;;;;;;11.36;68.76;97664.13;110444;1245;59742;-75
2022/10/04 08:50:16;;;;;;;4.50;3.30;;;;;;;11.24;68.75;97666.34;110312;1245;70715;-75
2022/10/04 08:52:56;;;;;;;5.10;3.60;;;;;;;11.04;69.95;97667.62;110469;1246;68584;-75
2022/10/04 08:56:01;;;;;;;4.70;3.10;;;;;;;11.21;70.00;97667.95;110217;1245;68606;-75
2022/10/04 08:58:50;;;;;;;4.70;3.80;;;;;;;11.11;70.01;97672.36;110447;1246;59702;-73
2022/10/04 09:01:49;;;;;;;3.40;2.70;;;;;;;11.25;70.71;97668.05;110213;1247;59731;-75
2022/10/04 09:04:39;;;;;;;3.90;3.50;;;;;;;11.35;70.65;97670.60;110309;1245;71502;-75
2022/10/04 09:07:40;;;;;;;4.30;3.60;;;;;;;11.51;69.72;97673.65;110585;1246;68711;-74
2022/10/04 09:10:12;;;;;;;3.70;3.30;;;;;;;12.08;69.85;97674.41;110667;1247;69776;-74
2022/10/04 09:12:43;;;;;;;4.50;3.00;;;;;;;12.72;67.73;97673.34;110436;1245;59710;-75
2022/10/04 09:15:21;;;;;;;5.50;3.60;;;;;;;13.26;65.76;97671.89;110477;1246;59700;-75
2022/10/04 09:18:11;;;;;;;3.90;3.40;;;;;;;13.65;65.54;97671.93;110361;1245;72346;-74
2022/10/04 09:20:50;;;;;;;4.40;3.80;;;;;;;13.45;60.97;97673.36;110297;1246;69335;-72
2022/10/04 09:23:29;;;;;;;3.80;3.30;;;;;;;12.89;63.50;97675.34;110402;1246;68702;-75
2022/10/04 09:26:12;;;;;;;4.90;3.60;;;;;;;13.37;63.79;97679.30;110247;1245;59732;-75
2022/10/04 09:29:01;;;;;;;6.30;3.50;;;;;;;14.47;62.97;97673.75;110517;1246;59676;-74
2022/10/04 09:31:50;;;;;;;3.20;2.70;;;;;;;15.33;58.07;97675.36;110509;1246;71541;-76
2022/10/04 09:35:05;;;;;;;3.70;2.30;;;;;;;16.42;56.65;97669.69;110298;1245;69280;-75
2022/10/04 09:37:47;;;;;;;3.20;2.40;;;;;;;16.94;52.30;97667.85;110225;1246;69590;-73
2022/10/04 09:40:40;;;;;;;4.90;2.90;;;;;;;17.39;52.45;97671.29;110441;1247;59686;-74
2022/10/04 09:43:43;;;;;;;3.10;2.40;;;;;;;17.50;51.57;97669.06;110543;1245;59649;-75
2022/10/04 09:46:40;;;;;;;2.70;2.10;;;;;;;17.38;52.02;97671.95;110228;1245;71312;-75
2022/10/04 09:49:49;;;;;;;2.60;2.20;;;;;;;17.66;49.42;97668.91;110348;1245;68669;-76
2022/10/04 09:52:25;;;;;;;4.80;2.10;;;;;;;16.22;51.73;97669.30;110243;1245;69557;-73
2022/10/04 09:55:03;;;;;;;2.50;1.90;;;;;;;16.96;50.65;97664.31;110253;1247;59773;-75
2022/10/04 09:57:40;;;;;;;2.80;1.80;;;;;;;17.22;51.91;97665.91;110386;1245;59677;-75
2022/10/04 10:00:32;;;;;;;2.80;2.20;;;;;;;17.34;50.51;97672.89;110393;1246;70795;-74
2022/10/04 10:03:33;;;;;;;3.30;2.20;;;;;;;17.73;49.97;97672.96;110282;1245;69806;-74
2022/10/04 10:06:22;;;;;;;2.10;1.90;;;;;;;18.19;49.39;97673.20;110316;1246;69126;-75
2022/10/04 10:09:09;;;;;;;1.90;1.70;;;;;;;18.10;49.83;97674.09;110277;1245;59748;-75
2022/10/04 10:15:08;;;;;;;3.10;2.20;;;;;;;16.77;50.53;97676.84;110896;1245;71555;-75
2022/10/04 10:17:50;;;;;;;2.90;2.20;;;;;;;16.00;50.61;97676.67;110395;1246;69235;-75
2022/10/04 10:21:00;;;;;;;4.10;2.40;;;;;;;15.16;53.82;97678.54;110407;1246;68610;-74
2022/10/04 10:23:39;;;;;;;2.80;2.00;;;;;;;15.07;55.24;97678.80;109774;1247;59760;-73
2022/10/04 10:26:43;;;;;;;2.30;2.00;;;;;;;14.54;55.46;97679.20;110406;1247;59660;-73
2022/10/04 10:29:23;;;;;;;3.70;2.30;;;;;;;14.20;55.95;97679.52;110388;1247;71529;-74
2022/10/04 10:32:09;;;;;;;2.80;2.20;;;;;;;13.92;57.08;97682.18;110416;1246;69389;-75
2022/10/04 10:34:36;;;;;;;2.40;2.00;;;;;;;13.84;57.61;97687.26;110199;1247;69316;-73
2022/10/04 10:37:12;;;;;;;3.80;2.70;;;;;;;13.12;62.11;97688.25;110282;1246;59706;-76
2022/10/04 10:39:58;;;;;;;3.60;2.80;;;;;;;12.22;66.03;97693.23;110485;1247;59688;-74
2022/10/04 10:43:17;;;;;;;2.90;2.00;;;;;;;11.37;67.01;97693.83;110483;1246;70755;-72
2022/10/04 10:45:55;;;;;;;2.80;2.00;;;;;;;11.32;67.82;97698.94;109965;1247;69341;-72
2022/10/04 10:48:25;;;;;;;3.10;2.30;;;;;;;11.41;68.59;97695.52;110320;1245;69548;-72
2022/10/04 10:51:00;;;;;;;;;;;;;;;11.44;70.27;97698.73;110368;1246;59682;-73
2022/10/04 10:53:44;;;;;;;3.50;2.00;;;;;;;11.66;68.18;97696.45;110186;1247;59765;-75
2022/10/04 10:56:39;;;;;;;1.90;1.70;;;;;;;11.97;68.41;97701.23;110473;1245;71880;-73
2022/10/04 11:00:01;;;;;;;2.30;1.60;;;;;;;12.97;63.88;97691.15;110233;1246;69546;-72
2022/10/04 11:02:43;;;;;;;1.90;1.60;;;;;;;14.27;61.58;97690.50;110226;1247;68549;-75
2022/10/04 11:05:29;;;;;;;2.10;1.50;;;;;;;14.60;58.33;97686.39;110367;1246;59788;-73
2022/10/04 11:08:26;;;;;;;1.50;1.20;;;;;;;15.47;57.30;97686.57;110321;1246;60124;-73
2022/10/04 11:11:04;;;;;;;2.70;1.60;;;;;;;15.80;55.30;97686.08;110230;1245;71007;-74
2022/10/04 11:13:53;;;;;;;2.20;1.60;;;;;;;16.92;54.06;97681.75;110197;1247;68797;-74
2022/10/04 11:16:58;;;;;;;2.50;1.60;;;;;;;17.67;52.05;97673.12;110386;1247;69785;-74
2022/10/04 11:19:53;;;;;;;2.60;2.10;;;;;;;17.88;49.23;97674.70;110487;1246;59664;-75
2022/10/04 11:23:02;;;;;;;2.40;1.80;;;;;;;18.36;48.09;97670.81;110765;1246;59692;-74
2022/10/04 11:25:52;;;;;;;2.80;2.50;;;;;;;18.56;47.29;97667.36;110461;1246;71442;-74
2022/10/04 11:28:56;;;;;;;3.80;2.20;;;;;;;18.72;46.95;97669.63;110447;1246;69231;-75
2022/10/04 11:31:54;;;;;;;2.20;1.90;;;;;;;19.22;45.49;97674.89;110340;1247;69412;-76
2022/10/04 11:34:46;;;;;;;3.00;2.40;;;;;;;18.55;46.65;97671.55;110468;1246;59679;-76
2022/10/04 11:37:21;;;;;;;2.60;2.20;;;;;;;18.18;48.18;97672.63;110381;1246;59679;-75
2022/10/04 11:40:10;;;;;;;2.70;2.10;;;;;;;18.44;48.28;97672.13;110263;1247;71402;-74
2022/10/04 11:42:38;;;;;;;3.70;3.00;;;;;;;18.99;47.12;97672.30;110485;1247;69914;-73
2022/10/04 11:45:26;;;;;;;3.00;2.70;;;;;;;19.27;46.45;97664.97;110528;1246;68553;-75
2022/10/04 11:48:38;;;;;;;2.80;2.30;;;;;;;19.58;46.49;97663.35;110430;1245;59752;-74
2022/10/04 11:51:43;;;;;;;3.40;2.70;;;;;;;19.93;45.18;97662.14;109953;1246;59808;-75
2022/10/04 11:54:30;;;;;;;3.60;3.20;;;;;;;20.56;44.11;97662.39;110547;1245;71496;-75
2022/10/04 11:57:03;;;;;;;4.30;2.90;;;;;;;20.47;43.30;97663.30;110592;1245;69976;-74
2022/10/04 11:59:49;;;;;;;3.70;2.90;;;;;;;19.45;45.06;97670.41;110531;1245;69655;-76
2022/10/04 12:02:52;;;;;;;4.20;3.30;;;;;;;19.98;44.13;97667.42;110336;1246;59749;-74
2022/10/04 12:05:28;;;;;;;2.70;2.20;;;;;;;20.01;44.08;97671.19;110399;1245;59793;-75
2022/10/04 12:08:14;;;;;;;2.60;1.80;;;;;;;20.09;43.01;97671.58;110343;1246;71379;-75
2022/10/04 12:10:48;;;;;;;1.80;1.30;;;;;;;20.57;41.05;97660.52;110139;1247;69832;-74
2022/10/04 12:13:50;;;;;;;2.40;1.50;;;;;;;20.75;40.94;97663.13;110437;1247;69245;-75
2022/10/04 12:16:51;;;;;;;2.20;1.40;;;;;;;20.79;41.44;97663.19;110225;1247;59748;-75
2022/10/04 12:19:42;;;;;;;1.60;1.40;;;;;;;20.44;42.59;97663.84;110414;1246;59735;-74
2022/10/04 12:22:31;;;;;;;2.50;1.60;;;;;;;21.41;40.59;97662.31;110396;1246;71495;-75
2022/10/04 12:25:20;;;;;;;2.60;2.10;;;;;;;20.57;40.23;97666.17;110973;1247;69356;-75
2022/10/04 12:28:25;;;;;;;2.10;1.80;;;;;;;21.01;40.04;97660.40;110531;1247;69544;-74
2022/10/04 12:30:59;;;;;;;4.10;2.40;;;;;;;20.31;41.14;97662.19;110177;1245;59688;-75
2022/10/04 12:33:47;;;;;;;3.00;2.20;;;;;;;20.03;41.71;97661.19;110509;1247;59693;-73
2022/10/04 12:36:23;;;;;;;3.30;2.20;;;;;;;19.54;42.13;97663.75;110336;1246;71498;-74
2022/10/04 12:39:38;;;;;;;2.80;1.90;;;;;;;20.23;42.65;97661.52;110122;1245;69927;-76
2022/10/04 12:42:27;;;;;;;2.70;2.00;;;;;;;20.85;40.16;97661.98;109780;1253;68679;-74
2022/10/04 12:45:15;;;;;;;2.00;1.30;;;;;;;21.38;38.93;97661.20;110201;1245;59761;-73
2022/10/04 12:48:08;;;;;;;1.80;1.10;;;;;;;21.85;36.68;97658.46;110401;1245;59680;-74